createdAt,value
2023-05-10T00:01:01.325Z,33.27
2023-05-10T00:03:28.445Z,33.28
2023-05-10T00:05:55.526Z,33.18
2023-05-10T00:08:22.740Z,33.16
2023-05-10T00:10:50.755Z,33.24
2023-05-10T00:13:17.920Z,33.27
2023-05-10T00:15:44.938Z,33.12
2023-05-10T00:18:12.381Z,33.28
2023-05-10T00:20:39.368Z,33.18
2023-05-10T00:23:06.579Z,33.28
2023-05-10T00:25:33.694Z,33.28
2023-05-10T00:28:02.602Z,33.25
2023-05-10T00:30:29.738Z,33.13
2023-05-10T00:32:56.888Z,33.16
2023-05-10T00:35:24.203Z,33.13
2023-05-10T00:37:51.358Z,33.10
2023-05-10T00:40:18.815Z,33.11
2023-05-10T00:42:45.959Z,33.15
2023-05-10T00:45:13.088Z,33.12
2023-05-10T00:47:41.092Z,33.21
2023-05-10T00:50:10.149Z,33.12
2023-05-10T00:52:37.375Z,33.22
2023-05-10T00:55:05.840Z,33.14
2023-05-10T00:57:33.050Z,33.21
2023-05-10T01:00:00.944Z,33.09
2023-05-10T01:02:28.649Z,33.05
2023-05-10T01:04:56.526Z,33.14
2023-05-10T01:07:23.555Z,33.02
2023-05-10T01:09:50.642Z,32.98
2023-05-10T01:12:17.845Z,32.99
2023-05-10T01:14:45.320Z,33.10
2023-05-10T01:17:14.009Z,32.95
2023-05-10T01:19:41.603Z,33.08
2023-05-10T01:22:11.694Z,33.06
2023-05-10T01:24:48.686Z,33.04
2023-05-10T01:27:40.307Z,32.96
2023-05-10T01:30:24.277Z,32.95
2023-05-10T01:33:16.201Z,32.98
2023-05-10T01:35:54.781Z,32.83
2023-05-10T01:38:29.991Z,32.95
2023-05-10T01:41:25.136Z,32.97
2023-05-10T01:44:41.142Z,32.82
2023-05-10T01:47:30.135Z,32.79
2023-05-10T01:50:01.111Z,32.86
2023-05-10T01:52:42.334Z,32.90
2023-05-10T01:56:07.431Z,32.77
